createdAt,value
2022-07-27T00:04:31.491Z,7.20
2022-07-27T00:09:37.276Z,6.80
2022-07-27T00:14:43.153Z,7.00
2022-07-27T00:19:48.933Z,6.60
2022-07-27T00:24:54.664Z,6.30
2022-07-27T00:30:00.512Z,6.00
2022-07-27T00:35:08.199Z,6.00
2022-07-27T00:40:14.488Z,6.80
2022-07-27T00:45:20.304Z,6.30
2022-07-27T00:50:26.914Z,5.20
2022-07-27T00:55:34.225Z,4.80
2022-07-27T01:00:40.814Z,5.00
2022-07-27T01:05:47.853Z,5.20
2022-07-27T01:10:55.184Z,4.90
2022-07-27T01:16:03.718Z,4.50
2022-07-27T01:21:10.662Z,3.80
2022-07-27T01:26:16.686Z,3.70
2022-07-27T01:31:22.543Z,4.10
2022-07-27T01:36:28.759Z,3.70
2022-07-27T01:41:34.983Z,3.30
2022-07-27T01:46:40.853Z,3.30
2022-07-27T01:51:46.898Z,3.30
2022-07-27T01:56:53.019Z,3.10
2022-07-27T02:01:59.325Z,2.80
2022-07-27T02:07:05.367Z,3.00
2022-07-27T02:12:30.283Z,2.90
2022-07-27T02:17:36.592Z,3.00
2022-07-27T02:22:43.120Z,2.60
2022-07-27T02:27:49.832Z,2.70
2022-07-27T02:32:55.823Z,2.60
2022-07-27T02:38:01.904Z,3.00
2022-07-27T02:43:07.726Z,2.80
2022-07-27T02:48:13.766Z,3.10
2022-07-27T02:53:19.671Z,2.60
2022-07-27T02:58:25.479Z,2.50
2022-07-27T03:03:35.902Z,2.40
2022-07-27T03:08:42.817Z,2.30
2022-07-27T03:13:48.567Z,1.70
2022-07-27T03:18:54.429Z,1.80
2022-07-27T03:24:00.383Z,2.20
2022-07-27T03:29:06.355Z,2.20
2022-07-27T03:34:12.354Z,2.30
2022-07-27T03:39:18.233Z,1.80
2022-07-27T03:44:24.146Z,1.90
2022-07-27T03:49:30.373Z,1.90
2022-07-27T03:54:36.276Z,1.70
2022-07-27T03:59:42.714Z,1.80
2022-07-27T04:04:48.537Z,1.70
2022-07-27T04:09:54.439Z,1.60
2022-07-27T04:15:00.359Z,1.60
2022-07-27T04:20:08.336Z,1.40
2022-07-27T04:25:14.337Z,1.30
2022-07-27T04:30:20.428Z,1.50
2022-07-27T04:35:26.994Z,1.70
2022-07-27T04:40:34.995Z,1.60
2022-07-27T04:45:41.062Z,1.20
2022-07-27T04:50:47.922Z,1.60
2022-07-27T04:55:53.779Z,1.40
2022-07-27T05:01:00.443Z,1.20
2022-07-27T05:06:06.723Z,0.80
2022-07-27T05:11:12.607Z,1.20
2022-07-27T05:16:18.721Z,0.90
2022-07-27T05:21:25.182Z,0.90
2022-07-27T05:26:31.419Z,0.80
2022-07-27T05:31:37.313Z,0.70
2022-07-27T05:36:43.391Z,0.70
2022-07-27T05:41:49.762Z,0.90
2022-07-27T05:46:56.772Z,0.80
2022-07-27T05:52:03.173Z,0.70
2022-07-27T05:57:09.044Z,0.90
2022-07-27T06:02:14.853Z,0.70
2022-07-27T06:07:39.872Z,0.60
2022-07-27T06:12:47.181Z,0.70
2022-07-27T06:17:53.995Z,0.80
2022-07-27T06:23:07.584Z,0.70
2022-07-27T06:28:14.229Z,0.90
2022-07-27T06:35:23.390Z,0.90
2022-07-27T06:40:30.125Z,0.90
2022-07-27T06:45:36.428Z,1.70
2022-07-27T06:55:46.733Z,0.90
2022-07-27T07:00:52.881Z,0.90
2022-07-27T07:05:58.979Z,0.90
2022-07-27T07:11:05.218Z,1.00
2022-07-27T07:16:11.345Z,0.90
2022-07-27T07:21:18.753Z,1.10
2022-07-27T07:26:24.664Z,0.90
2022-07-27T07:31:30.707Z,0.70
2022-07-27T07:36:37.010Z,0.90
2022-07-27T07:41:43.193Z,0.90
2022-07-27T07:46:49.968Z,0.80
2022-07-27T07:51:59.123Z,0.90
2022-07-27T07:57:10.126Z,0.80
2022-07-27T08:08:03.888Z,0.90
2022-07-27T08:13:33.379Z,1.00
2022-07-27T08:19:18.383Z,0.90
2022-07-27T08:24:29.237Z,1.00
2022-07-27T08:30:20.204Z,0.90
2022-07-27T08:35:45.182Z,0.90
2022-07-27T08:40:51.676Z,0.80
2022-07-27T08:46:00.460Z,1.00
2022-07-27T08:51:09.715Z,0.90
2022-07-27T08:56:16.294Z,0.90
2022-07-27T09:01:22.293Z,1.00
2022-07-27T09:06:53.238Z,1.20
2022-07-27T09:12:09.705Z,0.90
2022-07-27T09:22:54.761Z,1.20
2022-07-27T09:28:01.117Z,0.90
2022-07-27T09:33:08.109Z,1.10
2022-07-27T09:48:51.606Z,1.30
2022-07-27T09:53:59.419Z,1.10
2022-07-27T09:59:05.626Z,1.20
2022-07-27T10:04:11.758Z,1.20
2022-07-27T10:09:20.048Z,1.00
2022-07-27T10:14:26.133Z,1.10
2022-07-27T10:19:42.040Z,1.50
2022-07-27T10:25:00.648Z,1.00
2022-07-27T10:30:24.064Z,1.00
2022-07-27T10:35:44.603Z,1.20
2022-07-27T10:41:23.964Z,1.10
2022-07-27T10:46:32.172Z,1.20
2022-07-27T10:51:38.446Z,1.10
2022-07-27T10:56:51.039Z,1.00
2022-07-27T11:02:00.139Z,1.10
2022-07-27T11:07:24.865Z,1.10
2022-07-27T11:12:32.075Z,1.10
2022-07-27T11:17:56.781Z,1.30
2022-07-27T11:28:47.688Z,1.10
2022-07-27T11:33:59.293Z,1.00
2022-07-27T11:39:06.966Z,1.00
2022-07-27T11:44:15.142Z,1.30
2022-07-27T11:54:34.875Z,1.10
2022-07-27T11:59:43.287Z,1.00
2022-07-27T12:04:50.498Z,1.10
2022-07-27T12:09:58.319Z,1.20
2022-07-27T12:20:48.634Z,1.00
2022-07-27T12:25:54.630Z,1.00
2022-07-27T12:31:00.737Z,1.00
2022-07-27T12:36:09.110Z,1.00
2022-07-27T12:41:26.532Z,1.10
2022-07-27T12:46:32.460Z,1.40
2022-07-27T12:51:38.206Z,1.40
2022-07-27T12:56:44.419Z,1.00
2022-07-27T13:01:53.009Z,1.00
2022-07-27T13:06:59.484Z,1.10
2022-07-27T13:12:07.057Z,0.90
2022-07-27T13:17:20.889Z,0.80
2022-07-27T13:22:26.878Z,1.30
2022-07-27T13:27:32.813Z,0.90
2022-07-27T13:32:39.324Z,1.00
2022-07-27T13:37:45.788Z,0.90
2022-07-27T13:42:51.776Z,0.80
2022-07-27T13:47:57.639Z,1.00
2022-07-27T13:53:03.498Z,1.10
2022-07-27T13:58:09.419Z,1.40
2022-07-27T14:03:15.558Z,0.90
2022-07-27T14:08:21.885Z,0.90
2022-07-27T14:13:29.428Z,1.10
2022-07-27T14:18:36.873Z,0.80
2022-07-27T14:23:42.962Z,0.80
2022-07-27T14:28:49.283Z,0.90
2022-07-27T14:33:55.423Z,0.90
2022-07-27T14:39:01.260Z,1.00
2022-07-27T14:44:07.858Z,1.10
2022-07-27T14:49:17.313Z,1.00
2022-07-27T14:54:23.350Z,0.90
2022-07-27T14:59:29.333Z,1.00
2022-07-27T15:04:35.127Z,1.00
2022-07-27T15:09:41.041Z,1.00
2022-07-27T15:14:47.148Z,1.00
2022-07-27T15:19:53.139Z,1.40
2022-07-27T15:24:59.265Z,0.90
2022-07-27T15:30:06.289Z,0.90
2022-07-27T15:35:12.359Z,1.20
2022-07-27T15:40:38.673Z,1.00
2022-07-27T15:45:48.290Z,1.00
2022-07-27T15:50:54.847Z,0.80
2022-07-27T15:56:00.957Z,1.10
2022-07-27T16:01:08.366Z,1.30
2022-07-27T16:06:20.214Z,1.10
2022-07-27T16:11:26.409Z,1.00
2022-07-27T16:16:32.383Z,2.40
2022-07-27T16:21:53.890Z,6.50
2022-07-27T16:27:03.027Z,4.40
2022-07-27T16:32:09.537Z,2.20
2022-07-27T16:37:15.484Z,13.60
2022-07-27T16:42:21.243Z,5.80
2022-07-27T16:47:27.684Z,3.10
2022-07-27T16:52:33.803Z,7.60
2022-07-27T16:57:39.814Z,4.10
2022-07-27T17:02:46.007Z,1.50
2022-07-27T17:07:52.536Z,1.90
2022-07-27T17:12:58.812Z,1.80
2022-07-27T17:18:05.332Z,2.60
2022-07-27T17:23:12.151Z,2.10
2022-07-27T17:28:17.988Z,3.30
2022-07-27T17:33:23.803Z,2.60
2022-07-27T17:38:31.514Z,4.20
2022-07-27T17:43:38.900Z,3.30
2022-07-27T17:48:45.058Z,4.80
2022-07-27T17:53:51.033Z,4.40
2022-07-27T17:59:09.264Z,5.60
2022-07-27T18:04:23.003Z,5.90
2022-07-27T18:09:28.992Z,13.60
2022-07-27T18:14:34.739Z,54.30
2022-07-27T18:19:44.374Z,53.20
2022-07-27T18:24:51.758Z,28.30
2022-07-27T18:29:57.675Z,22.50
2022-07-27T18:35:03.759Z,17.00
2022-07-27T18:40:12.143Z,87.50
2022-07-27T18:45:18.259Z,136.50
2022-07-27T18:50:24.746Z,56.30
2022-07-27T18:55:32.200Z,52.90
2022-07-27T19:00:38.027Z,15.30
2022-07-27T19:05:44.885Z,4.80
2022-07-27T19:10:52.168Z,3.00
2022-07-27T19:16:00.649Z,2.60
2022-07-27T19:21:06.495Z,2.10
2022-07-27T19:26:12.299Z,1.70
2022-07-27T19:31:22.874Z,1.70
2022-07-27T19:36:29.892Z,1.70
2022-07-27T19:41:35.825Z,1.70
2022-07-27T19:46:41.724Z,2.00
2022-07-27T19:51:48.023Z,1.70
2022-07-27T19:56:53.923Z,2.10
2022-07-27T20:01:59.914Z,2.00
2022-07-27T20:07:09.898Z,1.90
2022-07-27T20:12:15.646Z,2.40
2022-07-27T20:17:21.498Z,2.40
2022-07-27T20:22:27.592Z,2.10
2022-07-27T20:27:33.602Z,2.00
2022-07-27T20:32:39.443Z,2.00
2022-07-27T20:37:46.570Z,2.20
2022-07-27T20:42:52.717Z,2.20
2022-07-27T20:47:58.513Z,6.50
2022-07-27T20:53:04.455Z,10.10
2022-07-27T20:58:11.405Z,11.50
2022-07-27T21:03:17.367Z,11.50
2022-07-27T21:08:23.343Z,9.30
2022-07-27T21:13:29.242Z,9.80
2022-07-27T21:18:35.749Z,8.90
2022-07-27T21:24:00.558Z,19.50
2022-07-27T21:29:09.294Z,20.20
2022-07-27T21:34:17.562Z,18.90
2022-07-27T21:39:24.933Z,11.20
2022-07-27T21:44:30.581Z,10.00
2022-07-27T21:49:36.224Z,4.10
2022-07-27T21:54:41.925Z,3.30
2022-07-27T21:59:47.546Z,2.40
2022-07-27T22:04:53.005Z,2.10
2022-07-27T22:09:58.475Z,2.10
2022-07-27T22:15:04.517Z,1.90
2022-07-27T22:20:11.116Z,1.90
2022-07-27T22:25:19.232Z,1.60
2022-07-27T22:30:24.870Z,1.90
2022-07-27T22:35:30.482Z,1.80
2022-07-27T22:40:35.870Z,2.20
2022-07-27T22:45:41.255Z,1.80
2022-07-27T22:50:47.366Z,1.80
2022-07-27T22:55:53.892Z,2.00
2022-07-27T23:01:00.018Z,2.20
2022-07-27T23:06:06.266Z,2.20
2022-07-27T23:11:12.379Z,2.40
2022-07-27T23:16:18.225Z,2.20
2022-07-27T23:21:23.721Z,1.80
2022-07-27T23:26:29.382Z,2.20
2022-07-27T23:31:35.528Z,2.30
2022-07-27T23:36:43.955Z,2.20
2022-07-27T23:41:50.152Z,2.10
2022-07-27T23:46:55.882Z,1.90
2022-07-27T23:52:02.750Z,2.10
2022-07-27T23:57:08.870Z,1.90
